Baugh, Oklahoma
Current Conditions -  °F | °C
As of 9:55 AM on Thursday 27 Nov 2014 (Local Time) from KOWP Reporting Station
Clear Clear  
Wind Chill: 37°   Ceiling: Unl
Heat Index: 37°   Visibility: 10mi
Dew Point: 24°   Wind: 3mph
Humidity: 60%   Direction: 70°ENE
Pressure: 30.56"   Gusts: NA
Location:  36.248°N, 96.4789°W
Report Text: KOWP 271555Z AUTO 07003KT 10SM CLR 03/M04 A3056 RMK AO2 T00251045
Loading
Personal Weather Stations






























Interactive Weather Map New forecast layout! Learn more

10-Day Weather Forecast

Advertisements
Track Severe Weather on mobile